Port Eads, Louisiana
Current Conditions -  °F | °C
As of 10:51 PM on Friday 21 Nov 2014 (Local Time) from KBVE Reporting Station
Clear Clear  
Wind Chill: 62°   Ceiling: Unl
Heat Index: 62°   Visibility: 10mi
Dew Point: 56°   Wind: 8mph
Humidity: 80%   Direction: 90°E
Pressure: 30.25"   Gusts: NA
Location:  29.2037°N, 89.3875°W
Report Text: KBVE 220451Z AUTO 09007KT 10SM CLR 17/13 A3025 RMK AO2 SLP243 T01670133
Loading
Personal Weather Stations






























Interactive Weather Map New forecast layout! Learn more

10-Day Weather Forecast

Advertisements
Track Severe Weather on mobile